sensor_id;sensor_type;location;lat;lon;timestamp;P1;durP1;ratioP1;P2;durP2;ratioP2
32297;SDS011;18782;48.984;8.548;2023-12-20T00:00:03;3.20;;;1.73;;
32297;SDS011;18782;48.984;8.548;2023-12-20T00:02:32;2.40;;;1.50;;
32297;SDS011;18782;48.984;8.548;2023-12-20T00:05:01;6.10;;;2.20;;
32297;SDS011;18782;48.984;8.548;2023-12-20T00:07:28;5.25;;;2.03;;
32297;SDS011;18782;48.984;8.548;2023-12-20T00:09:56;3.58;;;2.20;;
32297;SDS011;18782;48.984;8.548;2023-12-20T00:12:24;3.40;;;2.10;;
32297;SDS011;18782;48.984;8.548;2023-12-20T00:14:51;3.92;;;2.10;;
32297;SDS011;18782;48.984;8.548;2023-12-20T00:17:19;3.10;;;2.20;;
32297;SDS011;18782;48.984;8.548;2023-12-20T00:19:47;4.28;;;2.08;;
32297;SDS011;18782;48.984;8.548;2023-12-20T00:22:16;2.90;;;2.10;;
32297;SDS011;18782;48.984;8.548;2023-12-20T00:24:43;6.22;;;2.20;;
32297;SDS011;18782;48.984;8.548;2023-12-20T00:27:11;4.10;;;2.20;;
32297;SDS011;18782;48.984;8.548;2023-12-20T00:29:39;3.67;;;2.28;;
32297;SDS011;18782;48.984;8.548;2023-12-20T00:32:09;2.92;;;2.10;;
32297;SDS011;18782;48.984;8.548;2023-12-20T00:34:36;2.63;;;2.05;;
32297;SDS011;18782;48.984;8.548;2023-12-20T00:37:04;2.03;;;1.60;;
32297;SDS011;18782;48.984;8.548;2023-12-20T00:39:33;3.13;;;2.20;;
32297;SDS011;18782;48.984;8.548;2023-12-20T00:42:01;3.92;;;2.40;;
32297;SDS011;18782;48.984;8.548;2023-12-20T00:44:29;3.70;;;2.08;;
32297;SDS011;18782;48.984;8.548;2023-12-20T00:46:57;3.75;;;2.05;;
32297;SDS011;18782;48.984;8.548;2023-12-20T00:49:24;3.13;;;2.13;;
32297;SDS011;18782;48.984;8.548;2023-12-20T00:51:52;2.72;;;1.92;;
32297;SDS011;18782;48.984;8.548;2023-12-20T00:54:20;2.35;;;1.70;;
32297;SDS011;18782;48.984;8.548;2023-12-20T00:56:49;3.10;;;2.17;;
32297;SDS011;18782;48.984;8.548;2023-12-20T00:59:17;2.45;;;1.75;;
32297;SDS011;18782;48.984;8.548;2023-12-20T01:01:45;2.58;;;1.85;;
32297;SDS011;18782;48.984;8.548;2023-12-20T01:04:13;5.30;;;1.85;;
32297;SDS011;18782;48.984;8.548;2023-12-20T01:06:40;3.00;;;1.90;;
32297;SDS011;18782;48.984;8.548;2023-12-20T01:09:08;3.63;;;1.83;;
32297;SDS011;18782;48.984;8.548;2023-12-20T01:11:36;2.90;;;1.83;;
32297;SDS011;18782;48.984;8.548;2023-12-20T01:14:05;2.50;;;1.60;;
32297;SDS011;18782;48.984;8.548;2023-12-20T01:16:32;2.67;;;1.63;;
32297;SDS011;18782;48.984;8.548;2023-12-20T01:19:00;2.40;;;1.65;;
32297;SDS011;18782;48.984;8.548;2023-12-20T01:21:28;1.77;;;1.38;;
32297;SDS011;18782;48.984;8.548;2023-12-20T01:23:55;3.45;;;1.75;;
32297;SDS011;18782;48.984;8.548;2023-12-20T01:26:23;2.45;;;1.88;;
32297;SDS011;18782;48.984;8.548;2023-12-20T01:28:51;2.97;;;1.63;;
32297;SDS011;18782;48.984;8.548;2023-12-20T01:31:20;2.03;;;1.30;;
32297;SDS011;18782;48.984;8.548;2023-12-20T01:33:47;2.75;;;1.83;;
32297;SDS011;18782;48.984;8.548;2023-12-20T01:36:15;2.17;;;1.65;;
32297;SDS011;18782;48.984;8.548;2023-12-20T01:38:43;2.60;;;1.80;;
32297;SDS011;18782;48.984;8.548;2023-12-20T01:41:11;2.20;;;1.40;;
32297;SDS011;18782;48.984;8.548;2023-12-20T01:43:38;2.15;;;1.20;;
32297;SDS011;18782;48.984;8.548;2023-12-20T01:46:16;2.42;;;1.35;;
32297;SDS011;18782;48.984;8.548;2023-12-20T01:48:46;2.40;;;1.40;;
32297;SDS011;18782;48.984;8.548;2023-12-20T01:51:14;2.55;;;1.20;;
32297;SDS011;18782;48.984;8.548;2023-12-20T01:53:42;1.92;;;0.98;;
32297;SDS011;18782;48.984;8.548;2023-12-20T01:56:11;2.05;;;1.30;;
32297;SDS011;18782;48.984;8.548;2023-12-20T01:58:39;1.90;;;1.08;;
32297;SDS011;18782;48.984;8.548;2023-12-20T02:01:11;2.00;;;1.10;;
32297;SDS011;18782;48.984;8.548;2023-12-20T02:03:39;1.83;;;1.15;;
32297;SDS011;18782;48.984;8.548;2023-12-20T02:06:09;2.15;;;1.25;;
32297;SDS011;18782;48.984;8.548;2023-12-20T02:08:37;1.30;;;0.98;;
32297;SDS011;18782;48.984;8.548;2023-12-20T02:11:04;1.90;;;1.38;;
32297;SDS011;18782;48.984;8.548;2023-12-20T02:13:32;2.28;;;1.20;;
32297;SDS011;18782;48.984;8.548;2023-12-20T02:16:00;1.52;;;1.00;;
32297;SDS011;18782;48.984;8.548;2023-12-20T02:18:28;2.10;;;0.98;;
32297;SDS011;18782;48.984;8.548;2023-12-20T02:20:56;1.30;;;0.90;;
32297;SDS011;18782;48.984;8.548;2023-12-20T02:23:24;2.95;;;1.10;;
32297;SDS011;18782;48.984;8.548;2023-12-20T02:25:52;1.20;;;0.90;;
32297;SDS011;18782;48.984;8.548;2023-12-20T02:28:20;1.60;;;0.85;;
32297;SDS011;18782;48.984;8.548;2023-12-20T02:30:49;1.60;;;0.98;;
32297;SDS011;18782;48.984;8.548;2023-12-20T02:33:16;1.95;;;0.75;;
32297;SDS011;18782;48.984;8.548;2023-12-20T02:35:44;1.50;;;0.85;;
32297;SDS011;18782;48.984;8.548;2023-12-20T02:38:11;2.00;;;1.30;;
32297;SDS011;18782;48.984;8.548;2023-12-20T02:40:41;2.08;;;1.10;;
32297;SDS011;18782;48.984;8.548;2023-12-20T02:43:15;2.13;;;1.15;;
32297;SDS011;18782;48.984;8.548;2023-12-20T02:45:43;1.30;;;0.90;;
32297;SDS011;18782;48.984;8.548;2023-12-20T02:48:11;2.03;;;1.30;;
32297;SDS011;18782;48.984;8.548;2023-12-20T02:50:38;1.60;;;1.05;;
32297;SDS011;18782;48.984;8.548;2023-12-20T02:53:06;2.38;;;1.13;;
32297;SDS011;18782;48.984;8.548;2023-12-20T02:55:34;1.95;;;1.20;;
32297;SDS011;18782;48.984;8.548;2023-12-20T02:58:03;2.10;;;1.30;;
32297;SDS011;18782;48.984;8.548;2023-12-20T03:00:31;2.35;;;1.00;;
32297;SDS011;18782;48.984;8.548;2023-12-20T03:02:58;2.78;;;1.15;;
32297;SDS011;18782;48.984;8.548;2023-12-20T03:05:26;1.77;;;1.20;;
32297;SDS011;18782;48.984;8.548;2023-12-20T03:07:54;2.28;;;1.27;;
32297;SDS011;18782;48.984;8.548;2023-12-20T03:10:22;2.00;;;1.23;;
32297;SDS011;18782;48.984;8.548;2023-12-20T03:12:53;1.92;;;1.15;;
32297;SDS011;18782;48.984;8.548;2023-12-20T03:15:21;1.85;;;1.10;;
32297;SDS011;18782;48.984;8.548;2023-12-20T03:17:49;1.80;;;1.20;;
32297;SDS011;18782;48.984;8.548;2023-12-20T03:20:17;1.65;;;1.10;;
32297;SDS011;18782;48.984;8.548;2023-12-20T03:22:45;2.22;;;1.05;;
32297;SDS011;18782;48.984;8.548;2023-12-20T03:25:12;1.80;;;1.20;;
32297;SDS011;18782;48.984;8.548;2023-12-20T03:27:40;1.75;;;1.20;;
32297;SDS011;18782;48.984;8.548;2023-12-20T03:30:08;1.98;;;1.10;;
32297;SDS011;18782;48.984;8.548;2023-12-20T03:32:38;2.08;;;1.20;;
32297;SDS011;18782;48.984;8.548;2023-12-20T03:35:06;1.63;;;1.02;;
32297;SDS011;18782;48.984;8.548;2023-12-20T03:37:34;1.67;;;1.20;;
32297;SDS011;18782;48.984;8.548;2023-12-20T03:40:02;1.50;;;0.90;;
32297;SDS011;18782;48.984;8.548;2023-12-20T03:42:30;2.13;;;1.05;;
32297;SDS011;18782;48.984;8.548;2023-12-20T03:44:57;1.67;;;1.13;;
32297;SDS011;18782;48.984;8.548;2023-12-20T03:47:25;1.80;;;1.20;;
32297;SDS011;18782;48.984;8.548;2023-12-20T03:49:54;1.50;;;1.00;;
32297;SDS011;18782;48.984;8.548;2023-12-20T03:52:22;1.73;;;1.17;;
32297;SDS011;18782;48.984;8.548;2023-12-20T03:54:49;2.60;;;1.10;;
32297;SDS011;18782;48.984;8.548;2023-12-20T03:57:17;2.88;;;1.05;;
32297;SDS011;18782;48.984;8.548;2023-12-20T03:59:45;2.08;;;1.00;;
32297;SDS011;18782;48.984;8.548;2023-12-20T04:02:13;1.60;;;1.10;;
32297;SDS011;18782;48.984;8.548;2023-12-20T04:04:40;1.85;;;1.10;;
32297;SDS011;18782;48.984;8.548;2023-12-20T04:07:10;1.50;;;1.10;;
32297;SDS011;18782;48.984;8.548;2023-12-20T04:09:38;2.70;;;1.20;;
32297;SDS011;18782;48.984;8.548;2023-12-20T04:12:05;1.65;;;0.90;;
32297;SDS011;18782;48.984;8.548;2023-12-20T04:14:33;1.58;;;0.80;;
32297;SDS011;18782;48.984;8.548;2023-12-20T04:17:01;1.80;;;0.98;;
32297;SDS011;18782;48.984;8.548;2023-12-20T04:19:29;1.77;;;1.15;;
32297;SDS011;18782;48.984;8.548;2023-12-20T04:21:56;1.30;;;0.93;;
32297;SDS011;18782;48.984;8.548;2023-12-20T04:24:26;2.05;;;1.15;;
32297;SDS011;18782;48.984;8.548;2023-12-20T04:26:53;1.55;;;1.15;;
32297;SDS011;18782;48.984;8.548;2023-12-20T04:29:21;1.85;;;1.05;;
32297;SDS011;18782;48.984;8.548;2023-12-20T04:31:48;1.83;;;1.02;;
32297;SDS011;18782;48.984;8.548;2023-12-20T04:34:17;2.63;;;1.08;;
32297;SDS011;18782;48.984;8.548;2023-12-20T04:36:45;3.10;;;1.40;;
32297;SDS011;18782;48.984;8.548;2023-12-20T04:39:13;3.03;;;1.38;;
32297;SDS011;18782;48.984;8.548;2023-12-20T04:41:43;2.33;;;1.40;;
32297;SDS011;18782;48.984;8.548;2023-12-20T04:44:10;2.35;;;1.50;;
32297;SDS011;18782;48.984;8.548;2023-12-20T04:46:38;4.25;;;1.63;;
32297;SDS011;18782;48.984;8.548;2023-12-20T04:49:06;2.67;;;1.67;;
32297;SDS011;18782;48.984;8.548;2023-12-20T04:51:34;3.33;;;1.52;;
32297;SDS011;18782;48.984;8.548;2023-12-20T04:54:02;2.22;;;1.25;;
32297;SDS011;18782;48.984;8.548;2023-12-20T04:56:30;1.98;;;1.67;;
32297;SDS011;18782;48.984;8.548;2023-12-20T04:58:59;3.72;;;1.70;;
32297;SDS011;18782;48.984;8.548;2023-12-20T05:01:26;2.42;;;1.60;;
32297;SDS011;18782;48.984;8.548;2023-12-20T05:03:54;3.95;;;1.50;;
32297;SDS011;18782;48.984;8.548;2023-12-20T05:06:22;3.65;;;1.88;;
32297;SDS011;18782;48.984;8.548;2023-12-20T05:08:50;3.85;;;2.28;;
32297;SDS011;18782;48.984;8.548;2023-12-20T05:11:18;2.70;;;1.75;;
32297;SDS011;18782;48.984;8.548;2023-12-20T05:13:46;2.40;;;2.00;;
32297;SDS011;18782;48.984;8.548;2023-12-20T05:16:17;3.13;;;2.10;;
32297;SDS011;18782;48.984;8.548;2023-12-20T05:18:48;2.65;;;1.63;;
32297;SDS011;18782;48.984;8.548;2023-12-20T05:21:18;3.08;;;2.17;;
32297;SDS011;18782;48.984;8.548;2023-12-20T05:23:46;2.67;;;1.88;;
32297;SDS011;18782;48.984;8.548;2023-12-20T05:26:13;3.13;;;2.10;;
32297;SDS011;18782;48.984;8.548;2023-12-20T05:28:41;3.42;;;2.55;;
32297;SDS011;18782;48.984;8.548;2023-12-20T05:31:09;3.15;;;2.28;;
32297;SDS011;18782;48.984;8.548;2023-12-20T05:33:38;4.10;;;2.50;;
32297;SDS011;18782;48.984;8.548;2023-12-20T05:36:06;2.67;;;2.08;;
32297;SDS011;18782;48.984;8.548;2023-12-20T05:38:37;3.90;;;2.85;;
32297;SDS011;18782;48.984;8.548;2023-12-20T05:41:05;3.22;;;2.40;;
32297;SDS011;18782;48.984;8.548;2023-12-20T05:43:33;3.05;;;2.28;;
32297;SDS011;18782;48.984;8.548;2023-12-20T05:46:00;4.47;;;2.40;;
32297;SDS011;18782;48.984;8.548;2023-12-20T05:48:28;4.97;;;2.63;;
32297;SDS011;18782;48.984;8.548;2023-12-20T05:50:57;3.40;;;2.33;;
32297;SDS011;18782;48.984;8.548;2023-12-20T05:53:24;3.30;;;2.35;;
32297;SDS011;18782;48.984;8.548;2023-12-20T05:55:52;3.85;;;2.42;;
32297;SDS011;18782;48.984;8.548;2023-12-20T05:58:20;4.50;;;2.47;;
32297;SDS011;18782;48.984;8.548;2023-12-20T06:00:47;3.45;;;2.88;;
32297;SDS011;18782;48.984;8.548;2023-12-20T06:03:16;3.50;;;2.47;;
32297;SDS011;18782;48.984;8.548;2023-12-20T06:05:43;5.40;;;2.78;;
32297;SDS011;18782;48.984;8.548;2023-12-20T06:08:12;4.30;;;2.70;;
32297;SDS011;18782;48.984;8.548;2023-12-20T06:10:40;5.38;;;3.47;;
32297;SDS011;18782;48.984;8.548;2023-12-20T06:13:08;2.88;;;2.28;;
32297;SDS011;18782;48.984;8.548;2023-12-20T06:15:35;2.38;;;1.77;;
32297;SDS011;18782;48.984;8.548;2023-12-20T06:18:03;3.65;;;2.40;;
32297;SDS011;18782;48.984;8.548;2023-12-20T06:20:31;2.55;;;1.90;;
32297;SDS011;18782;48.984;8.548;2023-12-20T06:22:59;3.28;;;2.50;;
32297;SDS011;18782;48.984;8.548;2023-12-20T06:25:28;4.70;;;3.55;;
32297;SDS011;18782;48.984;8.548;2023-12-20T06:27:56;4.30;;;3.03;;
32297;SDS011;18782;48.984;8.548;2023-12-20T06:30:24;3.42;;;2.38;;
32297;SDS011;18782;48.984;8.548;2023-12-20T06:32:53;2.72;;;1.85;;
32297;SDS011;18782;48.984;8.548;2023-12-20T06:35:24;4.30;;;2.05;;
32297;SDS011;18782;48.984;8.548;2023-12-20T06:37:51;4.15;;;2.30;;
32297;SDS011;18782;48.984;8.548;2023-12-20T06:40:19;4.57;;;2.50;;
32297;SDS011;18782;48.984;8.548;2023-12-20T06:42:48;3.85;;;2.40;;
32297;SDS011;18782;48.984;8.548;2023-12-20T06:45:30;2.60;;;1.98;;
32297;SDS011;18782;48.984;8.548;2023-12-20T06:47:58;2.72;;;1.60;;
32297;SDS011;18782;48.984;8.548;2023-12-20T06:50:26;2.97;;;2.10;;
32297;SDS011;18782;48.984;8.548;2023-12-20T06:52:53;2.30;;;1.90;;
32297;SDS011;18782;48.984;8.548;2023-12-20T06:55:22;3.47;;;1.80;;
32297;SDS011;18782;48.984;8.548;2023-12-20T06:57:51;2.80;;;1.60;;
32297;SDS011;18782;48.984;8.548;2023-12-20T07:00:19;2.35;;;1.85;;
32297;SDS011;18782;48.984;8.548;2023-12-20T07:02:47;2.50;;;1.90;;
32297;SDS011;18782;48.984;8.548;2023-12-20T07:05:16;2.42;;;1.60;;
32297;SDS011;18782;48.984;8.548;2023-12-20T07:07:45;2.38;;;1.75;;
32297;SDS011;18782;48.984;8.548;2023-12-20T07:10:14;2.15;;;1.50;;
32297;SDS011;18782;48.984;8.548;2023-12-20T07:12:42;3.20;;;1.60;;
32297;SDS011;18782;48.984;8.548;2023-12-20T07:15:11;2.05;;;1.85;;
32297;SDS011;18782;48.984;8.548;2023-12-20T07:17:39;3.83;;;1.83;;
32297;SDS011;18782;48.984;8.548;2023-12-20T07:20:07;3.20;;;1.80;;
32297;SDS011;18782;48.984;8.548;2023-12-20T07:22:37;5.45;;;2.40;;
32297;SDS011;18782;48.984;8.548;2023-12-20T07:25:06;3.10;;;2.30;;
32297;SDS011;18782;48.984;8.548;2023-12-20T07:27:34;3.45;;;2.60;;
32297;SDS011;18782;48.984;8.548;2023-12-20T07:30:02;3.42;;;2.20;;
32297;SDS011;18782;48.984;8.548;2023-12-20T07:32:32;4.38;;;2.80;;
32297;SDS011;18782;48.984;8.548;2023-12-20T07:34:59;4.15;;;2.40;;
32297;SDS011;18782;48.984;8.548;2023-12-20T07:37:27;6.43;;;3.45;;
32297;SDS011;18782;48.984;8.548;2023-12-20T07:39:55;4.20;;;2.85;;
32297;SDS011;18782;48.984;8.548;2023-12-20T07:42:22;4.45;;;2.78;;
32297;SDS011;18782;48.984;8.548;2023-12-20T07:44:50;4.32;;;2.15;;
32297;SDS011;18782;48.984;8.548;2023-12-20T07:47:18;4.25;;;2.30;;
32297;SDS011;18782;48.984;8.548;2023-12-20T07:49:49;4.55;;;2.40;;
32297;SDS011;18782;48.984;8.548;2023-12-20T07:52:18;4.47;;;2.50;;
32297;SDS011;18782;48.984;8.548;2023-12-20T07:54:46;4.47;;;2.42;;
32297;SDS011;18782;48.984;8.548;2023-12-20T07:57:13;5.07;;;2.88;;
32297;SDS011;18782;48.984;8.548;2023-12-20T07:59:41;4.22;;;3.03;;
32297;SDS011;18782;48.984;8.548;2023-12-20T08:02:10;5.22;;;2.88;;
32297;SDS011;18782;48.984;8.548;2023-12-20T08:04:38;4.82;;;2.50;;
32297;SDS011;18782;48.984;8.548;2023-12-20T08:07:08;4.03;;;2.80;;
32297;SDS011;18782;48.984;8.548;2023-12-20T08:09:36;4.47;;;3.30;;
32297;SDS011;18782;48.984;8.548;2023-12-20T08:12:07;4.15;;;2.50;;
32297;SDS011;18782;48.984;8.548;2023-12-20T08:14:35;3.13;;;2.28;;
32297;SDS011;18782;48.984;8.548;2023-12-20T08:17:03;3.38;;;2.45;;
32297;SDS011;18782;48.984;8.548;2023-12-20T08:19:31;3.58;;;2.42;;
32297;SDS011;18782;48.984;8.548;2023-12-20T08:21:58;6.43;;;2.20;;
32297;SDS011;18782;48.984;8.548;2023-12-20T08:24:27;3.22;;;2.20;;
32297;SDS011;18782;48.984;8.548;2023-12-20T08:26:56;3.42;;;2.20;;
32297;SDS011;18782;48.984;8.548;2023-12-20T08:29:24;3.95;;;1.90;;
32297;SDS011;18782;48.984;8.548;2023-12-20T08:31:52;2.70;;;1.98;;
32297;SDS011;18782;48.984;8.548;2023-12-20T08:34:20;5.18;;;3.38;;
32297;SDS011;18782;48.984;8.548;2023-12-20T08:36:48;3.67;;;2.20;;
32297;SDS011;18782;48.984;8.548;2023-12-20T08:39:16;2.80;;;2.05;;
32297;SDS011;18782;48.984;8.548;2023-12-20T08:41:45;2.40;;;1.70;;
32297;SDS011;18782;48.984;8.548;2023-12-20T08:44:12;5.13;;;1.60;;
32297;SDS011;18782;48.984;8.548;2023-12-20T08:46:40;2.75;;;1.70;;
32297;SDS011;18782;48.984;8.548;2023-12-20T08:49:08;8.23;;;2.47;;
32297;SDS011;18782;48.984;8.548;2023-12-20T08:51:36;3.67;;;1.38;;
32297;SDS011;18782;48.984;8.548;2023-12-20T08:54:06;8.70;;;3.92;;
32297;SDS011;18782;48.984;8.548;2023-12-20T08:56:34;2.78;;;1.13;;
32297;SDS011;18782;48.984;8.548;2023-12-20T08:59:03;4.28;;;1.00;;
32297;SDS011;18782;48.984;8.548;2023-12-20T09:01:31;3.10;;;1.13;;
32297;SDS011;18782;48.984;8.548;2023-12-20T09:03:59;2.88;;;0.93;;
32297;SDS011;18782;48.984;8.548;2023-12-20T09:06:27;4.13;;;1.40;;
32297;SDS011;18782;48.984;8.548;2023-12-20T09:08:54;4.03;;;1.05;;
32297;SDS011;18782;48.984;8.548;2023-12-20T09:11:22;6.93;;;1.65;;
32297;SDS011;18782;48.984;8.548;2023-12-20T09:13:50;9.20;;;0.80;;
32297;SDS011;18782;48.984;8.548;2023-12-20T09:16:19;3.05;;;0.80;;
32297;SDS011;18782;48.984;8.548;2023-12-20T09:18:47;4.22;;;1.00;;
32297;SDS011;18782;48.984;8.548;2023-12-20T09:21:15;2.78;;;1.00;;
32297;SDS011;18782;48.984;8.548;2023-12-20T09:23:42;5.10;;;1.10;;
32297;SDS011;18782;48.984;8.548;2023-12-20T09:26:10;3.70;;;1.80;;
32297;SDS011;18782;48.984;8.548;2023-12-20T09:28:37;6.03;;;1.27;;
32297;SDS011;18782;48.984;8.548;2023-12-20T09:31:07;3.35;;;1.10;;
32297;SDS011;18782;48.984;8.548;2023-12-20T09:33:36;4.07;;;1.60;;
32297;SDS011;18782;48.984;8.548;2023-12-20T09:36:04;3.88;;;1.23;;
32297;SDS011;18782;48.984;8.548;2023-12-20T09:38:32;4.07;;;0.93;;
32297;SDS011;18782;48.984;8.548;2023-12-20T09:41:00;6.55;;;1.42;;
32297;SDS011;18782;48.984;8.548;2023-12-20T09:43:30;3.63;;;1.00;;
32297;SDS011;18782;48.984;8.548;2023-12-20T09:45:59;3.78;;;1.00;;
32297;SDS011;18782;48.984;8.548;2023-12-20T09:48:28;3.97;;;1.05;;
32297;SDS011;18782;48.984;8.548;2023-12-20T09:50:58;5.15;;;1.27;;
32297;SDS011;18782;48.984;8.548;2023-12-20T09:53:26;3.92;;;1.00;;
32297;SDS011;18782;48.984;8.548;2023-12-20T09:55:57;3.20;;;0.90;;
32297;SDS011;18782;48.984;8.548;2023-12-20T09:58:26;4.68;;;1.15;;
32297;SDS011;18782;48.984;8.548;2023-12-20T10:00:53;4.97;;;1.77;;
32297;SDS011;18782;48.984;8.548;2023-12-20T10:03:24;4.00;;;1.33;;
32297;SDS011;18782;48.984;8.548;2023-12-20T10:05:53;3.55;;;1.00;;
32297;SDS011;18782;48.984;8.548;2023-12-20T10:08:25;3.50;;;0.90;;
32297;SDS011;18782;48.984;8.548;2023-12-20T10:10:53;5.25;;;1.42;;
32297;SDS011;18782;48.984;8.548;2023-12-20T10:13:21;2.58;;;1.10;;
32297;SDS011;18782;48.984;8.548;2023-12-20T10:15:51;8.45;;;1.40;;
32297;SDS011;18782;48.984;8.548;2023-12-20T10:18:19;3.63;;;1.60;;
32297;SDS011;18782;48.984;8.548;2023-12-20T10:20:48;6.18;;;1.30;;
32297;SDS011;18782;48.984;8.548;2023-12-20T10:23:15;4.35;;;1.40;;
32297;SDS011;18782;48.984;8.548;2023-12-20T10:25:50;4.82;;;1.10;;
32297;SDS011;18782;48.984;8.548;2023-12-20T10:28:23;6.55;;;1.25;;
32297;SDS011;18782;48.984;8.548;2023-12-20T10:30:54;7.55;;;1.40;;
32297;SDS011;18782;48.984;8.548;2023-12-20T10:33:23;2.95;;;0.82;;
32297;SDS011;18782;48.984;8.548;2023-12-20T10:35:51;4.85;;;1.65;;
32297;SDS011;18782;48.984;8.548;2023-12-20T10:38:20;5.68;;;1.48;;
32297;SDS011;18782;48.984;8.548;2023-12-20T10:40:48;4.72;;;1.08;;
32297;SDS011;18782;48.984;8.548;2023-12-20T10:43:17;9.77;;;2.10;;
32297;SDS011;18782;48.984;8.548;2023-12-20T10:45:46;4.15;;;1.05;;
32297;SDS011;18782;48.984;8.548;2023-12-20T10:48:14;4.45;;;1.17;;
32297;SDS011;18782;48.984;8.548;2023-12-20T10:50:43;5.35;;;1.42;;
32297;SDS011;18782;48.984;8.548;2023-12-20T10:53:12;5.45;;;1.40;;
32297;SDS011;18782;48.984;8.548;2023-12-20T10:55:40;5.32;;;1.48;;
32297;SDS011;18782;48.984;8.548;2023-12-20T10:58:10;5.05;;;1.58;;
32297;SDS011;18782;48.984;8.548;2023-12-20T11:00:40;5.50;;;1.50;;
32297;SDS011;18782;48.984;8.548;2023-12-20T11:03:09;7.97;;;1.50;;
32297;SDS011;18782;48.984;8.548;2023-12-20T11:05:40;6.25;;;2.50;;
32297;SDS011;18782;48.984;8.548;2023-12-20T11:08:19;7.70;;;1.80;;
32297;SDS011;18782;48.984;8.548;2023-12-20T11:10:54;6.03;;;1.45;;
32297;SDS011;18782;48.984;8.548;2023-12-20T11:13:28;2.67;;;0.98;;
32297;SDS011;18782;48.984;8.548;2023-12-20T11:16:01;7.30;;;1.33;;
32297;SDS011;18782;48.984;8.548;2023-12-20T11:18:30;6.93;;;1.20;;
32297;SDS011;18782;48.984;8.548;2023-12-20T11:21:00;5.28;;;1.20;;
32297;SDS011;18782;48.984;8.548;2023-12-20T11:23:29;4.80;;;1.17;;
32297;SDS011;18782;48.984;8.548;2023-12-20T11:25:57;4.75;;;1.02;;
32297;SDS011;18782;48.984;8.548;2023-12-20T11:28:26;6.70;;;0.90;;
32297;SDS011;18782;48.984;8.548;2023-12-20T11:30:57;7.57;;;2.13;;
32297;SDS011;18782;48.984;8.548;2023-12-20T11:33:29;7.38;;;1.55;;
32297;SDS011;18782;48.984;8.548;2023-12-20T11:35:58;5.63;;;1.30;;
32297;SDS011;18782;48.984;8.548;2023-12-20T11:38:27;5.10;;;1.27;;
32297;SDS011;18782;48.984;8.548;2023-12-20T11:40:54;4.05;;;0.85;;
32297;SDS011;18782;48.984;8.548;2023-12-20T11:43:31;5.63;;;1.00;;
32297;SDS011;18782;48.984;8.548;2023-12-20T11:46:03;3.90;;;1.10;;
32297;SDS011;18782;48.984;8.548;2023-12-20T11:48:34;5.95;;;1.20;;
32297;SDS011;18782;48.984;8.548;2023-12-20T11:51:02;5.22;;;1.35;;
32297;SDS011;18782;48.984;8.548;2023-12-20T11:56:03;4.05;;;1.38;;
32297;SDS011;18782;48.984;8.548;2023-12-20T11:58:31;6.13;;;1.73;;
32297;SDS011;18782;48.984;8.548;2023-12-20T12:00:59;7.20;;;1.48;;
32297;SDS011;18782;48.984;8.548;2023-12-20T12:03:28;7.85;;;2.50;;
32297;SDS011;18782;48.984;8.548;2023-12-20T12:05:58;7.75;;;1.55;;
32297;SDS011;18782;48.984;8.548;2023-12-20T12:08:27;4.82;;;1.25;;
32297;SDS011;18782;48.984;8.548;2023-12-20T12:10:54;9.13;;;1.95;;
32297;SDS011;18782;48.984;8.548;2023-12-20T12:13:22;5.43;;;1.50;;
32297;SDS011;18782;48.984;8.548;2023-12-20T12:15:53;7.82;;;1.10;;
32297;SDS011;18782;48.984;8.548;2023-12-20T12:18:21;4.95;;;1.40;;
32297;SDS011;18782;48.984;8.548;2023-12-20T12:20:49;6.15;;;1.30;;
32297;SDS011;18782;48.984;8.548;2023-12-20T12:23:23;8.80;;;1.50;;
32297;SDS011;18782;48.984;8.548;2023-12-20T12:25:51;7.20;;;1.17;;
32297;SDS011;18782;48.984;8.548;2023-12-20T12:28:18;6.97;;;1.50;;
32297;SDS011;18782;48.984;8.548;2023-12-20T12:30:55;9.55;;;1.30;;
32297;SDS011;18782;48.984;8.548;2023-12-20T12:33:24;9.45;;;1.20;;
32297;SDS011;18782;48.984;8.548;2023-12-20T12:35:52;7.55;;;1.40;;
32297;SDS011;18782;48.984;8.548;2023-12-20T12:38:20;8.40;;;1.67;;
32297;SDS011;18782;48.984;8.548;2023-12-20T12:40:49;5.72;;;0.93;;
32297;SDS011;18782;48.984;8.548;2023-12-20T12:43:19;8.27;;;1.40;;
32297;SDS011;18782;48.984;8.548;2023-12-20T12:45:49;7.85;;;1.55;;
32297;SDS011;18782;48.984;8.548;2023-12-20T12:48:17;7.47;;;2.42;;
32297;SDS011;18782;48.984;8.548;2023-12-20T12:50:45;8.80;;;1.70;;
32297;SDS011;18782;48.984;8.548;2023-12-20T12:53:13;8.02;;;1.77;;
32297;SDS011;18782;48.984;8.548;2023-12-20T12:55:40;8.45;;;1.52;;
32297;SDS011;18782;48.984;8.548;2023-12-20T12:58:09;8.90;;;1.48;;
32297;SDS011;18782;48.984;8.548;2023-12-20T13:00:37;6.32;;;1.80;;
32297;SDS011;18782;48.984;8.548;2023-12-20T13:03:05;6.55;;;1.55;;
32297;SDS011;18782;48.984;8.548;2023-12-20T13:05:32;6.72;;;1.02;;
32297;SDS011;18782;48.984;8.548;2023-12-20T13:08:06;8.68;;;1.45;;
32297;SDS011;18782;48.984;8.548;2023-12-20T13:10:33;7.40;;;2.00;;
32297;SDS011;18782;48.984;8.548;2023-12-20T13:13:01;5.15;;;1.23;;
32297;SDS011;18782;48.984;8.548;2023-12-20T13:15:31;6.75;;;1.35;;
32297;SDS011;18782;48.984;8.548;2023-12-20T13:17:59;5.10;;;1.10;;
32297;SDS011;18782;48.984;8.548;2023-12-20T13:20:27;4.40;;;1.00;;
32297;SDS011;18782;48.984;8.548;2023-12-20T13:22:55;3.60;;;1.10;;
32297;SDS011;18782;48.984;8.548;2023-12-20T13:25:22;6.28;;;2.20;;
32297;SDS011;18782;48.984;8.548;2023-12-20T13:27:51;5.43;;;1.33;;
32297;SDS011;18782;48.984;8.548;2023-12-20T13:30:19;3.03;;;1.20;;
32297;SDS011;18782;48.984;8.548;2023-12-20T13:32:48;8.05;;;1.60;;
32297;SDS011;18782;48.984;8.548;2023-12-20T13:35:16;3.95;;;1.00;;
32297;SDS011;18782;48.984;8.548;2023-12-20T13:37:44;5.43;;;1.00;;
32297;SDS011;18782;48.984;8.548;2023-12-20T13:40:12;7.25;;;1.65;;
32297;SDS011;18782;48.984;8.548;2023-12-20T13:42:40;6.97;;;1.27;;
32297;SDS011;18782;48.984;8.548;2023-12-20T13:45:08;4.05;;;1.13;;
32297;SDS011;18782;48.984;8.548;2023-12-20T13:47:36;9.00;;;1.48;;
32297;SDS011;18782;48.984;8.548;2023-12-20T13:50:06;6.38;;;2.15;;
32297;SDS011;18782;48.984;8.548;2023-12-20T13:52:34;6.30;;;1.50;;
32297;SDS011;18782;48.984;8.548;2023-12-20T13:55:05;8.45;;;1.50;;
32297;SDS011;18782;48.984;8.548;2023-12-20T13:57:34;5.13;;;1.23;;
32297;SDS011;18782;48.984;8.548;2023-12-20T14:00:09;4.22;;;1.08;;
32297;SDS011;18782;48.984;8.548;2023-12-20T14:02:40;5.85;;;1.45;;
32297;SDS011;18782;48.984;8.548;2023-12-20T14:05:09;7.13;;;1.10;;
32297;SDS011;18782;48.984;8.548;2023-12-20T14:07:37;3.67;;;1.10;;
32297;SDS011;18782;48.984;8.548;2023-12-20T14:10:06;4.05;;;0.98;;
32297;SDS011;18782;48.984;8.548;2023-12-20T14:12:34;4.88;;;1.20;;
32297;SDS011;18782;48.984;8.548;2023-12-20T14:15:04;5.22;;;1.10;;
32297;SDS011;18782;48.984;8.548;2023-12-20T14:17:35;6.68;;;1.08;;
32297;SDS011;18782;48.984;8.548;2023-12-20T14:20:03;7.20;;;1.23;;
32297;SDS011;18782;48.984;8.548;2023-12-20T14:22:34;5.40;;;1.10;;
32297;SDS011;18782;48.984;8.548;2023-12-20T14:25:02;13.27;;;1.50;;
32297;SDS011;18782;48.984;8.548;2023-12-20T14:27:30;7.13;;;2.10;;
32297;SDS011;18782;48.984;8.548;2023-12-20T14:29:57;7.53;;;1.20;;
32297;SDS011;18782;48.984;8.548;2023-12-20T14:32:25;5.45;;;1.17;;
32297;SDS011;18782;48.984;8.548;2023-12-20T14:34:54;5.55;;;1.15;;
32297;SDS011;18782;48.984;8.548;2023-12-20T14:37:22;5.30;;;1.10;;
32297;SDS011;18782;48.984;8.548;2023-12-20T14:39:51;7.68;;;0.93;;
32297;SDS011;18782;48.984;8.548;2023-12-20T14:42:19;9.10;;;1.17;;
32297;SDS011;18782;48.984;8.548;2023-12-20T14:44:48;9.60;;;1.30;;
32297;SDS011;18782;48.984;8.548;2023-12-20T14:47:18;5.90;;;1.33;;
32297;SDS011;18782;48.984;8.548;2023-12-20T14:49:46;6.85;;;1.15;;
32297;SDS011;18782;48.984;8.548;2023-12-20T14:52:14;9.15;;;1.70;;
32297;SDS011;18782;48.984;8.548;2023-12-20T14:54:41;9.63;;;1.33;;
32297;SDS011;18782;48.984;8.548;2023-12-20T14:57:11;7.82;;;1.92;;